sensor_id;sensor_type;location;lat;lon;timestamp;pressure;altitude;pressure_sealevel;temperature;humidity
36254;BME280;22291;52.250;21.228;2023-03-21T00:01:59;100099.36;;;8.10;90.18
36254;BME280;22291;52.250;21.228;2023-03-21T00:04:26;100097.52;;;8.08;90.00
36254;BME280;22291;52.250;21.228;2023-03-21T00:06:53;100095.91;;;8.07;89.82
36254;BME280;22291;52.250;21.228;2023-03-21T00:09:20;100096.50;;;8.03;90.28
36254;BME280;22291;52.250;21.228;2023-03-21T00:11:47;100101.87;;;8.03;90.37
36254;BME280;22291;52.250;21.228;2023-03-21T00:14:13;100099.25;;;8.01;90.63
36254;BME280;22291;52.250;21.228;2023-03-21T00:16:41;100097.91;;;8.01;90.51
36254;BME280;22291;52.250;21.228;2023-03-21T00:19:09;100089.03;;;8.00;90.75
36254;BME280;22291;52.250;21.228;2023-03-21T00:21:36;100085.52;;;8.00;90.74
36254;BME280;22291;52.250;21.228;2023-03-21T00:24:04;100087.69;;;8.00;91.19
36254;BME280;22291;52.250;21.228;2023-03-21T00:26:31;100088.47;;;8.01;91.17
36254;BME280;22291;52.250;21.228;2023-03-21T00:28:58;100088.21;;;8.00;91.22
36254;BME280;22291;52.250;21.228;2023-03-21T00:31:24;100084.17;;;8.00;91.17
36254;BME280;22291;52.250;21.228;2023-03-21T00:33:51;100079.34;;;7.99;91.28
36254;BME280;22291;52.250;21.228;2023-03-21T00:36:17;100083.64;;;8.00;91.32
36254;BME280;22291;52.250;21.228;2023-03-21T00:38:43;100079.34;;;7.99;91.39
36254;BME280;22291;52.250;21.228;2023-03-21T00:41:11;100078.25;;;8.00;91.50
36254;BME280;22291;52.250;21.228;2023-03-21T00:43:40;100074.74;;;8.00;91.49
36254;BME280;22291;52.250;21.228;2023-03-21T00:46:06;100084.17;;;8.00;91.52
36254;BME280;22291;52.250;21.228;2023-03-21T00:48:33;100080.13;;;8.00;91.63
36254;BME280;22291;52.250;21.228;2023-03-21T00:50:59;100080.39;;;8.01;91.79
36254;BME280;22291;52.250;21.228;2023-03-21T00:53:27;100076.09;;;8.00;92.01
36254;BME280;22291;52.250;21.228;2023-03-21T00:55:53;100080.69;;;7.99;91.67
36254;BME280;22291;52.250;21.228;2023-03-21T00:58:20;100080.42;;;7.98;91.61
36254;BME280;22291;52.250;21.228;2023-03-21T01:00:46;100078.55;;;7.99;91.88
36254;BME280;22291;52.250;21.228;2023-03-21T01:03:14;100072.90;;;7.98;91.78
36254;BME280;22291;52.250;21.228;2023-03-21T01:05:43;100075.86;;;7.99;91.78
36254;BME280;22291;52.250;21.228;2023-03-21T01:08:31;100082.33;;;7.98;91.67
36254;BME280;22291;52.250;21.228;2023-03-21T01:11:05;100076.09;;;8.00;91.85
36254;BME280;22291;52.250;21.228;2023-03-21T01:13:36;100079.08;;;7.98;91.84
36254;BME280;22291;52.250;21.228;2023-03-21T01:16:05;100075.59;;;7.98;91.84
36254;BME280;22291;52.250;21.228;2023-03-21T01:18:33;100075.59;;;7.98;91.70
36254;BME280;22291;52.250;21.228;2023-03-21T01:21:05;100071.84;;;7.96;91.82
36254;BME280;22291;52.250;21.228;2023-03-21T01:23:32;100069.16;;;7.96;91.76
36254;BME280;22291;52.250;21.228;2023-03-21T01:25:59;100075.09;;;7.96;91.74
36254;BME280;22291;52.250;21.228;2023-03-21T01:28:27;100075.36;;;7.97;91.92
36254;BME280;22291;52.250;21.228;2023-03-21T01:30:53;100070.80;;;7.95;91.87
36254;BME280;22291;52.250;21.228;2023-03-21T01:33:20;100066.02;;;7.92;91.86
36254;BME280;22291;52.250;21.228;2023-03-21T01:35:48;100063.36;;;7.89;91.95
36254;BME280;22291;52.250;21.228;2023-03-21T01:38:14;100066.84;;;7.90;92.55
36254;BME280;22291;52.250;21.228;2023-03-21T01:40:43;100062.86;;;7.87;92.05
36254;BME280;22291;52.250;21.228;2023-03-21T01:43:26;100064.50;;;7.85;92.01
36254;BME280;22291;52.250;21.228;2023-03-21T01:49:14;100067.48;;;7.84;92.47
36254;BME280;22291;52.250;21.228;2023-03-21T01:51:45;100058.42;;;7.80;92.41
36254;BME280;22291;52.250;21.228;2023-03-21T01:54:20;100067.78;;;7.82;92.18
36254;BME280;22291;52.250;21.228;2023-03-21T01:56:50;100062.95;;;7.82;92.09
36254;BME280;22291;52.250;21.228;2023-03-21T01:59:24;100064.33;;;7.79;92.28
36254;BME280;22291;52.250;21.228;2023-03-21T02:01:58;100053.62;;;7.77;92.09
36254;BME280;22291;52.250;21.228;2023-03-21T02:04:29;100061.44;;;7.76;92.12
36254;BME280;22291;52.250;21.228;2023-03-21T02:07:03;100054.99;;;7.74;92.08
36254;BME280;22291;52.250;21.228;2023-03-21T02:09:32;100057.19;;;7.72;92.55
36254;BME280;22291;52.250;21.228;2023-03-21T02:12:00;100056.13;;;7.71;92.32
36254;BME280;22291;52.250;21.228;2023-03-21T02:14:29;100055.58;;;7.71;92.34
36254;BME280;22291;52.250;21.228;2023-03-21T02:17:17;100056.13;;;7.71;92.16
36254;BME280;22291;52.250;21.228;2023-03-21T02:22:39;100054.55;;;7.70;92.05
36254;BME280;22291;52.250;21.228;2023-03-21T02:25:33;100059.94;;;7.70;91.92
36254;BME280;22291;52.250;21.228;2023-03-21T02:31:03;100058.33;;;7.69;92.12
36254;BME280;22291;52.250;21.228;2023-03-21T02:33:48;100055.63;;;7.69;91.94
36254;BME280;22291;52.250;21.228;2023-03-21T02:42:19;100058.24;;;7.74;92.02
36254;BME280;22291;52.250;21.228;2023-03-21T02:44:58;100055.25;;;7.75;92.12
36254;BME280;22291;52.250;21.228;2023-03-21T02:47:50;100056.02;;;7.78;92.19
36254;BME280;22291;52.250;21.228;2023-03-21T02:50:49;100050.08;;;7.79;92.29
36254;BME280;22291;52.250;21.228;2023-03-21T02:53:19;100060.00;;;7.81;92.35
36254;BME280;22291;52.250;21.228;2023-03-21T02:55:49;100058.65;;;7.81;92.21
36254;BME280;22291;52.250;21.228;2023-03-21T02:58:22;100062.95;;;7.82;92.12
36254;BME280;22291;52.250;21.228;2023-03-21T03:00:49;100060.55;;;7.80;92.07
36254;BME280;22291;52.250;21.228;2023-03-21T03:03:19;100064.80;;;7.84;92.21
36254;BME280;22291;52.250;21.228;2023-03-21T03:05:54;100064.50;;;7.85;92.21
36254;BME280;22291;52.250;21.228;2023-03-21T03:22:53;100071.82;;;7.82;92.13
36254;BME280;22291;52.250;21.228;2023-03-21T03:25:48;100071.06;;;7.79;92.16
36254;BME280;22291;52.250;21.228;2023-03-21T03:28:05;100075.86;;;7.82;92.24
36254;BME280;22291;52.250;21.228;2023-03-21T03:30:35;100081.51;;;7.83;92.34
36254;BME280;22291;52.250;21.228;2023-03-21T03:33:03;100075.86;;;7.82;92.21
36254;BME280;22291;52.250;21.228;2023-03-21T03:35:32;100083.09;;;7.84;92.20
36254;BME280;22291;52.250;21.228;2023-03-21T03:38:00;100072.38;;;7.82;92.24
36254;BME280;22291;52.250;21.228;2023-03-21T03:40:41;100077.20;;;7.82;92.38
36254;BME280;22291;52.250;21.228;2023-03-21T03:43:13;100078.26;;;7.84;92.34
36254;BME280;22291;52.250;21.228;2023-03-21T03:45:45;100080.66;;;7.85;92.33
36254;BME280;22291;52.250;21.228;2023-03-21T03:48:27;100075.83;;;7.85;92.18
36254;BME280;22291;52.250;21.228;2023-03-21T03:51:09;100075.56;;;7.84;92.02
36254;BME280;22291;52.250;21.228;2023-03-21T03:53:52;100075.83;;;7.85;92.00
36254;BME280;22291;52.250;21.228;2023-03-21T03:56:19;100070.97;;;7.84;92.08
36254;BME280;22291;52.250;21.228;2023-03-21T03:58:46;100078.26;;;7.84;92.11
36254;BME280;22291;52.250;21.228;2023-03-21T04:01:12;100084.44;;;7.84;91.96
36254;BME280;22291;52.250;21.228;2023-03-21T04:03:40;100075.83;;;7.85;91.95
36254;BME280;22291;52.250;21.228;2023-03-21T04:06:08;100084.44;;;7.84;91.94
36254;BME280;22291;52.250;21.228;2023-03-21T04:08:35;100085.55;;;7.83;92.07
36254;BME280;22291;52.250;21.228;2023-03-21T04:11:02;100083.67;;;7.81;92.06
36254;BME280;22291;52.250;21.228;2023-03-21T04:13:29;100085.34;;;7.80;91.89
36254;BME280;22291;52.250;21.228;2023-03-21T04:15:55;100082.68;;;7.77;92.21
36254;BME280;22291;52.250;21.228;2023-03-21T04:18:21;100081.39;;;7.75;92.08
36254;BME280;22291;52.250;21.228;2023-03-21T04:20:48;100083.82;;;7.74;92.14
36254;BME280;22291;52.250;21.228;2023-03-21T04:23:17;100081.92;;;7.74;92.29
36254;BME280;22291;52.250;21.228;2023-03-21T04:25:44;100082.73;;;7.75;92.30
36254;BME280;22291;52.250;21.228;2023-03-21T04:28:11;100089.14;;;7.76;92.36
36254;BME280;22291;52.250;21.228;2023-03-21T04:30:37;100090.49;;;7.76;92.39
36254;BME280;22291;52.250;21.228;2023-03-21T04:33:04;100085.66;;;7.76;92.51
36254;BME280;22291;52.250;21.228;2023-03-21T04:35:30;100092.45;;;7.73;92.37
36254;BME280;22291;52.250;21.228;2023-03-21T04:37:56;100091.11;;;7.73;92.36
36254;BME280;22291;52.250;21.228;2023-03-21T04:40:23;100092.98;;;7.73;92.29
36254;BME280;22291;52.250;21.228;2023-03-21T04:42:51;100092.45;;;7.73;92.33
36254;BME280;22291;52.250;21.228;2023-03-21T04:45:17;100086.80;;;7.72;92.27
36254;BME280;22291;52.250;21.228;2023-03-21T04:47:44;100086.02;;;7.72;92.13
36254;BME280;22291;52.250;21.228;2023-03-21T04:50:11;100089.00;;;7.70;92.08
36254;BME280;22291;52.250;21.228;2023-03-21T04:52:38;100089.00;;;7.70;91.98
36254;BME280;22291;52.250;21.228;2023-03-21T04:55:05;100088.20;;;7.70;91.97
36254;BME280;22291;52.250;21.228;2023-03-21T04:57:35;100093.83;;;7.71;92.04
36254;BME280;22291;52.250;21.228;2023-03-21T05:00:05;100091.42;;;7.69;92.16
36254;BME280;22291;52.250;21.228;2023-03-21T05:02:38;100087.67;;;7.67;92.02
36254;BME280;22291;52.250;21.228;2023-03-21T05:05:05;100097.36;;;7.69;92.07
36254;BME280;22291;52.250;21.228;2023-03-21T05:07:34;100094.41;;;7.67;92.16
36254;BME280;22291;52.250;21.228;2023-03-21T05:10:00;100096.31;;;7.67;92.24
36254;BME280;22291;52.250;21.228;2023-03-21T05:12:26;100103.02;;;7.70;92.41
36254;BME280;22291;52.250;21.228;2023-03-21T05:14:52;100100.55;;;7.71;92.32
36254;BME280;22291;52.250;21.228;2023-03-21T05:17:19;100106.73;;;7.71;92.21
36254;BME280;22291;52.250;21.228;2023-03-21T05:19:47;100100.00;;;7.71;92.29
36254;BME280;22291;52.250;21.228;2023-03-21T05:22:15;100105.09;;;7.73;92.35
36254;BME280;22291;52.250;21.228;2023-03-21T05:24:44;100105.36;;;7.74;92.54
36254;BME280;22291;52.250;21.228;2023-03-21T05:27:12;100105.30;;;7.76;92.64
36254;BME280;22291;52.250;21.228;2023-03-21T05:29:38;100102.08;;;7.77;92.48
36254;BME280;22291;52.250;21.228;2023-03-21T05:32:05;100110.37;;;7.80;92.47
36254;BME280;22291;52.250;21.228;2023-03-21T05:34:31;100106.03;;;7.82;92.39
36254;BME280;22291;52.250;21.228;2023-03-21T05:36:57;100104.11;;;7.85;92.38
36254;BME280;22291;52.250;21.228;2023-03-21T05:39:24;100105.95;;;7.87;92.38
36254;BME280;22291;52.250;21.228;2023-03-21T05:41:50;100104.31;;;7.89;92.48
36254;BME280;22291;52.250;21.228;2023-03-21T05:44:16;100109.14;;;7.89;92.27
36254;BME280;22291;52.250;21.228;2023-03-21T05:46:42;100115.58;;;7.91;92.28
36254;BME280;22291;52.250;21.228;2023-03-21T05:49:10;100115.84;;;7.92;92.33
36254;BME280;22291;52.250;21.228;2023-03-21T05:51:37;100119.89;;;7.92;92.17
36254;BME280;22291;52.250;21.228;2023-03-21T05:54:03;100119.06;;;7.91;92.13
36254;BME280;22291;52.250;21.228;2023-03-21T05:56:29;100120.41;;;7.91;92.14
36254;BME280;22291;52.250;21.228;2023-03-21T05:58:55;100118.77;;;7.93;92.29
36254;BME280;22291;52.250;21.228;2023-03-21T06:01:22;100125.22;;;7.94;92.31
36254;BME280;22291;52.250;21.228;2023-03-21T06:03:48;100130.05;;;7.95;92.35
36254;BME280;22291;52.250;21.228;2023-03-21T06:06:14;100133.00;;;7.96;92.17
36254;BME280;22291;52.250;21.228;2023-03-21T06:08:40;100137.55;;;7.98;92.20
36254;BME280;22291;52.250;21.228;2023-03-21T06:11:11;100141.29;;;7.99;92.04
36254;BME280;22291;52.250;21.228;2023-03-21T06:13:45;100143.19;;;7.99;92.09
36254;BME280;22291;52.250;21.228;2023-03-21T06:16:11;100145.33;;;7.99;91.98
36254;BME280;22291;52.250;21.228;2023-03-21T06:18:37;100148.81;;;8.00;91.94
36254;BME280;22291;52.250;21.228;2023-03-21T06:21:04;100151.48;;;8.02;92.04
36254;BME280;22291;52.250;21.228;2023-03-21T06:23:30;100157.66;;;8.03;91.98
36254;BME280;22291;52.250;21.228;2023-03-21T06:25:56;100161.20;;;8.01;91.66
36254;BME280;22291;52.250;21.228;2023-03-21T06:28:23;100160.12;;;8.02;91.81
36254;BME280;22291;52.250;21.228;2023-03-21T06:30:49;100157.95;;;8.01;91.81
36254;BME280;22291;52.250;21.228;2023-03-21T06:33:17;100158.77;;;8.02;91.66
36254;BME280;22291;52.250;21.228;2023-03-21T06:35:43;100160.91;;;8.02;91.75
36254;BME280;22291;52.250;21.228;2023-03-21T06:38:10;100159.27;;;8.04;91.70
36254;BME280;22291;52.250;21.228;2023-03-21T06:40:37;100159.77;;;8.06;91.84
36254;BME280;22291;52.250;21.228;2023-03-21T06:43:04;100159.19;;;8.09;91.97
36254;BME280;22291;52.250;21.228;2023-03-21T06:45:30;100162.11;;;8.10;91.78
36254;BME280;22291;52.250;21.228;2023-03-21T06:47:56;100155.91;;;8.12;91.94
36254;BME280;22291;52.250;21.228;2023-03-21T06:50:23;100161.79;;;8.14;91.90
36254;BME280;22291;52.250;21.228;2023-03-21T06:52:49;100167.65;;;8.19;92.16
36254;BME280;22291;52.250;21.228;2023-03-21T06:55:16;100168.38;;;8.22;91.97
36254;BME280;22291;52.250;21.228;2023-03-21T06:57:44;100168.91;;;8.24;91.88
36254;BME280;22291;52.250;21.228;2023-03-21T07:00:11;100170.25;;;8.24;91.63
36254;BME280;22291;52.250;21.228;2023-03-21T07:02:38;100167.00;;;8.25;91.37
36254;BME280;22291;52.250;21.228;2023-03-21T07:05:05;100167.23;;;8.26;91.25
36254;BME280;22291;52.250;21.228;2023-03-21T07:07:32;100173.09;;;8.30;91.39
36254;BME280;22291;52.250;21.228;2023-03-21T07:09:58;100174.91;;;8.35;91.51
36254;BME280;22291;52.250;21.228;2023-03-21T07:12:25;100169.75;;;8.36;91.28
36254;BME280;22291;52.250;21.228;2023-03-21T07:14:51;100172.42;;;8.38;91.24
36254;BME280;22291;52.250;21.228;2023-03-21T07:17:17;100178.01;;;8.45;91.37
36254;BME280;22291;52.250;21.228;2023-03-21T07:19:44;100180.35;;;8.49;91.32
36254;BME280;22291;52.250;21.228;2023-03-21T07:22:10;100188.41;;;8.51;90.99
36254;BME280;22291;52.250;21.228;2023-03-21T07:24:36;100183.51;;;8.53;91.21
36254;BME280;22291;52.250;21.228;2023-03-21T07:27:02;100184.50;;;8.57;91.15
36254;BME280;22291;52.250;21.228;2023-03-21T07:29:29;100189.30;;;8.60;91.22
36254;BME280;22291;52.250;21.228;2023-03-21T07:31:55;100186.25;;;8.65;91.54
36254;BME280;22291;52.250;21.228;2023-03-21T07:34:21;100187.01;;;8.68;91.24
36254;BME280;22291;52.250;21.228;2023-03-21T07:36:48;100186.16;;;8.70;91.15
36254;BME280;22291;52.250;21.228;2023-03-21T07:39:14;100189.05;;;8.73;90.84
36254;BME280;22291;52.250;21.228;2023-03-21T07:41:42;100190.66;;;8.74;90.84
36254;BME280;22291;52.250;21.228;2023-03-21T07:44:08;100187.93;;;8.77;90.64
36254;BME280;22291;52.250;21.228;2023-03-21T07:46:34;100194.58;;;8.82;90.93
36254;BME280;22291;52.250;21.228;2023-03-21T07:49:01;100183.06;;;8.90;91.22
36254;BME280;22291;52.250;21.228;2023-03-21T07:51:27;100185.55;;;9.01;91.23
36254;BME280;22291;52.250;21.228;2023-03-21T07:53:53;100181.41;;;9.06;90.90
36254;BME280;22291;52.250;21.228;2023-03-21T07:56:19;100183.50;;;9.09;90.03
36254;BME280;22291;52.250;21.228;2023-03-21T07:58:46;100192.61;;;9.13;89.60
36254;BME280;22291;52.250;21.228;2023-03-21T08:01:12;100192.84;;;9.14;89.60
36254;BME280;22291;52.250;21.228;2023-03-21T08:03:39;100194.91;;;9.20;89.83
36254;BME280;22291;52.250;21.228;2023-03-21T08:06:05;100198.22;;;9.28;90.57
36254;BME280;22291;52.250;21.228;2023-03-21T08:08:32;100195.75;;;9.43;90.55
36254;BME280;22291;52.250;21.228;2023-03-21T08:10:59;100198.60;;;9.60;90.06
36254;BME280;22291;52.250;21.228;2023-03-21T08:13:25;100204.29;;;9.72;89.75
36254;BME280;22291;52.250;21.228;2023-03-21T08:15:52;100206.15;;;9.86;89.94
36254;BME280;22291;52.250;21.228;2023-03-21T08:18:18;100199.87;;;9.99;89.49
36254;BME280;22291;52.250;21.228;2023-03-21T08:20:45;100203.32;;;10.14;89.29
36254;BME280;22291;52.250;21.228;2023-03-21T08:23:11;100206.51;;;10.16;87.23
36254;BME280;22291;52.250;21.228;2023-03-21T08:25:38;100211.43;;;10.14;86.66
36254;BME280;22291;52.250;21.228;2023-03-21T08:28:04;100208.29;;;10.09;85.51
36254;BME280;22291;52.250;21.228;2023-03-21T08:30:31;100205.02;;;10.09;85.66
36254;BME280;22291;52.250;21.228;2023-03-21T08:32:58;100209.94;;;10.07;85.07
36254;BME280;22291;52.250;21.228;2023-03-21T08:35:26;100217.08;;;10.03;84.82
36254;BME280;22291;52.250;21.228;2023-03-21T08:37:53;100210.06;;;10.02;85.01
36254;BME280;22291;52.250;21.228;2023-03-21T08:40:19;100211.86;;;10.07;85.20
36254;BME280;22291;52.250;21.228;2023-03-21T08:42:46;100213.52;;;10.17;85.97
36254;BME280;22291;52.250;21.228;2023-03-21T08:45:14;100215.31;;;10.33;86.27
36254;BME280;22291;52.250;21.228;2023-03-21T08:47:41;100215.48;;;10.48;86.32
36254;BME280;22291;52.250;21.228;2023-03-21T08:50:10;100210.72;;;10.64;86.31
36254;BME280;22291;52.250;21.228;2023-03-21T08:52:39;100215.33;;;10.84;85.95
36254;BME280;22291;52.250;21.228;2023-03-21T08:55:06;100221.38;;;11.10;85.23
36254;BME280;22291;52.250;21.228;2023-03-21T08:57:32;100221.77;;;11.26;83.84
36254;BME280;22291;52.250;21.228;2023-03-21T08:59:59;100216.27;;;11.37;83.17
36254;BME280;22291;52.250;21.228;2023-03-21T09:02:25;100220.77;;;11.50;82.72
36254;BME280;22291;52.250;21.228;2023-03-21T09:04:51;100219.19;;;11.58;81.65
36254;BME280;22291;52.250;21.228;2023-03-21T09:07:20;100223.80;;;11.66;81.32
36254;BME280;22291;52.250;21.228;2023-03-21T09:09:47;100220.96;;;11.71;80.88
36254;BME280;22291;52.250;21.228;2023-03-21T09:12:13;100226.06;;;11.82;80.82
36254;BME280;22291;52.250;21.228;2023-03-21T09:14:39;100226.85;;;11.82;79.74
36254;BME280;22291;52.250;21.228;2023-03-21T09:17:05;100228.27;;;11.80;78.51
36254;BME280;22291;52.250;21.228;2023-03-21T09:19:32;100235.20;;;11.74;78.21
36254;BME280;22291;52.250;21.228;2023-03-21T09:21:59;100239.58;;;11.64;77.72
36254;BME280;22291;52.250;21.228;2023-03-21T09:24:26;100242.69;;;11.60;77.53
36254;BME280;22291;52.250;21.228;2023-03-21T09:26:52;100244.98;;;11.47;76.88
36254;BME280;22291;52.250;21.228;2023-03-21T09:29:19;100249.81;;;11.38;76.96
36254;BME280;22291;52.250;21.228;2023-03-21T09:31:45;100248.44;;;11.30;76.74
36254;BME280;22291;52.250;21.228;2023-03-21T09:34:12;100252.65;;;11.25;76.81
36254;BME280;22291;52.250;21.228;2023-03-21T09:36:41;100256.85;;;11.19;76.80
36254;BME280;22291;52.250;21.228;2023-03-21T09:39:09;100258.60;;;11.15;77.21
36254;BME280;22291;52.250;21.228;2023-03-21T09:45:09;100263.73;;;11.06;76.21
36254;BME280;22291;52.250;21.228;2023-03-21T09:47:43;100259.30;;;10.90;76.07
36254;BME280;22291;52.250;21.228;2023-03-21T09:50:15;100267.48;;;10.76;75.81
36254;BME280;22291;52.250;21.228;2023-03-21T09:55:32;100267.17;;;10.57;76.44
36254;BME280;22291;52.250;21.228;2023-03-21T10:00:48;100265.34;;;10.44;76.47
36254;BME280;22291;52.250;21.228;2023-03-21T10:03:21;100262.62;;;10.33;76.34
36254;BME280;22291;52.250;21.228;2023-03-21T10:05:53;100263.77;;;10.29;76.63
36254;BME280;22291;52.250;21.228;2023-03-21T10:08:28;100259.83;;;10.24;76.74
36254;BME280;22291;52.250;21.228;2023-03-21T10:13:43;100252.53;;;10.13;76.98
36254;BME280;22291;52.250;21.228;2023-03-21T10:16:25;100263.09;;;10.12;77.26
36254;BME280;22291;52.250;21.228;2023-03-21T10:18:53;100248.97;;;10.15;77.44
36254;BME280;22291;52.250;21.228;2023-03-21T10:21:26;100254.99;;;10.23;77.85
36254;BME280;22291;52.250;21.228;2023-03-21T10:23:55;100253.44;;;10.31;78.01
36254;BME280;22291;52.250;21.228;2023-03-21T10:26:24;100260.72;;;10.44;78.32
36254;BME280;22291;52.250;21.228;2023-03-21T10:28:55;100259.90;;;10.55;77.81
36254;BME280;22291;52.250;21.228;2023-03-21T10:31:27;100262.34;;;10.65;78.03
36254;BME280;22291;52.250;21.228;2023-03-21T10:33:58;100264.08;;;10.73;77.64
36254;BME280;22291;52.250;21.228;2023-03-21T10:36:29;100270.58;;;10.72;76.91
36254;BME280;22291;52.250;21.228;2023-03-21T10:39:05;100272.98;;;10.62;76.73
36254;BME280;22291;52.250;21.228;2023-03-21T10:41:33;100271.15;;;10.49;77.00
36254;BME280;22291;52.250;21.228;2023-03-21T10:44:15;100279.08;;;10.45;77.82
36254;BME280;22291;52.250;21.228;2023-03-21T10:47:03;100282.83;;;10.46;78.63
36254;BME280;22291;52.250;21.228;2023-03-21T11:23:47;100280.61;;;10.71;79.27
36254;BME280;22291;52.250;21.228;2023-03-21T11:26:24;100275.91;;;11.06;80.09
36254;BME280;22291;52.250;21.228;2023-03-21T11:28:53;100280.03;;;11.23;79.37
36254;BME280;22291;52.250;21.228;2023-03-21T11:31:20;100275.54;;;11.38;79.06
36254;BME280;22291;52.250;21.228;2023-03-21T11:33:55;100275.19;;;11.51;78.71
36254;BME280;22291;52.250;21.228;2023-03-21T11:36:26;100275.20;;;11.60;78.28
36254;BME280;22291;52.250;21.228;2023-03-21T11:39:28;100266.71;;;11.82;78.78
36254;BME280;22291;52.250;21.228;2023-03-21T11:41:50;100265.61;;;12.00;78.22
36254;BME280;22291;52.250;21.228;2023-03-21T11:44:25;100266.98;;;12.18;77.59
36254;BME280;22291;52.250;21.228;2023-03-21T11:46:54;100258.11;;;12.23;77.27
36254;BME280;22291;52.250;21.228;2023-03-21T11:49:21;100263.20;;;12.33;76.91
36254;BME280;22291;52.250;21.228;2023-03-21T11:51:58;100254.64;;;12.55;77.88
36254;BME280;22291;52.250;21.228;2023-03-21T12:00:41;100259.56;;;13.24;74.46
36254;BME280;22291;52.250;21.228;2023-03-21T12:06:24;100260.53;;;13.19;72.64
36254;BME280;22291;52.250;21.228;2023-03-21T12:11:52;100257.52;;;12.97;72.00
36254;BME280;22291;52.250;21.228;2023-03-21T12:14:47;100260.09;;;12.94;72.40
36254;BME280;22291;52.250;21.228;2023-03-21T12:20:40;100251.23;;;13.29;72.62
36254;BME280;22291;52.250;21.228;2023-03-21T12:26:34;100245.24;;;13.80;72.88
36254;BME280;22291;52.250;21.228;2023-03-21T12:29:28;100241.74;;;14.34;73.19
36254;BME280;22291;52.250;21.228;2023-03-21T12:49:40;100230.86;;;15.36;66.45
36254;BME280;22291;52.250;21.228;2023-03-21T12:52:10;100228.94;;;15.30;64.78
36254;BME280;22291;52.250;21.228;2023-03-21T12:55:05;100234.98;;;15.17;64.16
36254;BME280;22291;52.250;21.228;2023-03-21T12:57:35;100228.84;;;14.96;63.68
36254;BME280;22291;52.250;21.228;2023-03-21T13:00:19;100231.09;;;14.75;63.20
36254;BME280;22291;52.250;21.228;2023-03-21T13:02:49;100227.37;;;14.46;63.05
36254;BME280;22291;52.250;21.228;2023-03-21T13:05:36;100235.45;;;14.15;62.91
36254;BME280;22291;52.250;21.228;2023-03-21T13:08:36;100227.94;;;13.85;63.76
36254;BME280;22291;52.250;21.228;2023-03-21T13:11:22;100225.23;;;13.64;64.41
36254;BME280;22291;52.250;21.228;2023-03-21T13:14:03;100234.83;;;13.40;65.46
36254;BME280;22291;52.250;21.228;2023-03-21T13:16:49;100233.68;;;13.26;65.64
36254;BME280;22291;52.250;21.228;2023-03-21T13:19:46;100229.41;;;13.17;65.64
36254;BME280;22291;52.250;21.228;2023-03-21T13:22:21;100230.00;;;13.07;66.17
36254;BME280;22291;52.250;21.228;2023-03-21T13:24:57;100222.33;;;12.95;66.07
36254;BME280;22291;52.250;21.228;2023-03-21T13:27:30;100222.84;;;12.88;65.81
36254;BME280;22291;52.250;21.228;2023-03-21T13:30:00;100219.41;;;12.85;66.01
36254;BME280;22291;52.250;21.228;2023-03-21T13:35:14;100226.16;;;12.70;65.82
36254;BME280;22291;52.250;21.228;2023-03-21T13:37:57;100223.02;;;12.59;66.03
36254;BME280;22291;52.250;21.228;2023-03-21T13:40:46;100223.19;;;12.54;66.28
36254;BME280;22291;52.250;21.228;2023-03-21T13:51:45;100223.67;;;11.80;65.33
36254;BME280;22291;52.250;21.228;2023-03-21T14:00:19;100233.37;;;11.81;65.33
36254;BME280;22291;52.250;21.228;2023-03-21T14:02:57;100236.81;;;11.75;65.25
36254;BME280;22291;52.250;21.228;2023-03-21T14:05:26;100235.05;;;11.71;65.75
36254;BME280;22291;52.250;21.228;2023-03-21T14:07:57;100236.23;;;11.67;66.52
36254;BME280;22291;52.250;21.228;2023-03-21T14:10:35;100232.49;;;11.66;66.60
36254;BME280;22291;52.250;21.228;2023-03-21T14:13:07;100234.41;;;11.65;67.04
36254;BME280;22291;52.250;21.228;2023-03-21T14:15:42;100236.48;;;11.59;67.38
36254;BME280;22291;52.250;21.228;2023-03-21T14:18:16;100230.56;;;11.57;67.86
36254;BME280;22291;52.250;21.228;2023-03-21T14:20:57;100237.42;;;11.55;67.99
36254;BME280;22291;52.250;21.228;2023-03-21T14:23:25;100232.02;;;11.64;68.02
36254;BME280;22291;52.250;21.228;2023-03-21T14:25:52;100228.64;;;11.95;68.76
36254;BME280;22291;52.250;21.228;2023-03-21T14:28:25;100228.56;;;12.39;69.55
36254;BME280;22291;52.250;21.228;2023-03-21T14:30:59;100228.55;;;12.95;69.11
36254;BME280;22291;52.250;21.228;2023-03-21T14:33:34;100231.64;;;13.30;67.58
36254;BME280;22291;52.250;21.228;2023-03-21T14:36:03;100223.98;;;13.47;67.44
36254;BME280;22291;52.250;21.228;2023-03-21T14:38:35;100217.60;;;13.78;66.51
36254;BME280;22291;52.250;21.228;2023-03-21T14:41:04;100220.61;;;13.92;65.69
36254;BME280;22291;52.250;21.228;2023-03-21T14:43:31;100219.55;;;14.05;65.53
36254;BME280;22291;52.250;21.228;2023-03-21T14:45:59;100212.72;;;14.32;65.80
36254;BME280;22291;52.250;21.228;2023-03-21T14:48:30;100215.58;;;14.48;64.35
36254;BME280;22291;52.250;21.228;2023-03-21T14:51:04;100215.61;;;14.54;63.14
36254;BME280;22291;52.250;21.228;2023-03-21T14:53:40;100214.06;;;14.60;63.19
36254;BME280;22291;52.250;21.228;2023-03-21T14:56:21;100214.98;;;14.82;63.02
36254;BME280;22291;52.250;21.228;2023-03-21T14:58:51;100213.64;;;14.88;61.72
36254;BME280;22291;52.250;21.228;2023-03-21T15:01:29;100217.05;;;14.91;61.23
36254;BME280;22291;52.250;21.228;2023-03-21T15:03:58;100219.41;;;14.81;60.19
36254;BME280;22291;52.250;21.228;2023-03-21T15:06:25;100218.95;;;14.79;60.17
36254;BME280;22291;52.250;21.228;2023-03-21T15:08:57;100210.91;;;14.82;60.62
36254;BME280;22291;52.250;21.228;2023-03-21T15:11:34;100213.30;;;14.90;60.42